Time;durP1;ratioP1;P1;durP2;ratioP2;P2;SDS_P1;SDS_P2;PMS_P1;PMS_P2;Temp;Humidity;BMP_temperature;BMP_pressure;BME280_temperature;BME280_humidity;BME280_pressure;Samples;Min_cycle;Max_cycle;Signal;HPM_P1;HPM_P2
2021/10/22 00:02:30;;;;;;;1.17;0.85;;;11.90;58.80;;;;;;5066149;28;20227;-92
2021/10/22 00:25:59;;;;;;;3.92;1.08;;;11.90;60.70;;;;;;4936549;29;20222;-92
2021/10/22 00:28:27;;;;;;;3.72;1.38;;;11.90;60.10;;;;;;5008058;28;20294;-92
2021/10/22 00:30:54;;;;;;;5.05;1.17;;;11.90;60.00;;;;;;5070217;28;20252;-92
2021/10/22 01:07:53;;;;;;;1.75;0.82;;;11.60;74.90;;;;;;5017285;28;20239;-92
2021/10/22 01:16:49;;;;;;;1.95;0.95;;;10.90;87.20;;;;;;4970487;28;20288;-93
2021/10/22 01:19:18;;;;;;;2.30;1.00;;;10.70;90.40;;;;;;5041564;28;20234;-92
2021/10/22 01:24:33;;;;;;;2.22;1.00;;;10.60;92.00;;;;;;5060068;28;20208;-93
2021/10/22 01:27:00;;;;;;;4.20;0.93;;;10.50;92.10;;;;;;5069573;28;20232;-93
2021/10/22 01:29:28;;;;;;;1.40;0.82;;;10.40;92.60;;;;;;5055590;28;20206;-93
2021/10/22 01:31:55;;;;;;;2.58;1.20;;;10.40;93.60;;;;;;5057505;28;20236;-93
2021/10/22 01:34:22;;;;;;;3.47;1.10;;;10.40;94.20;;;;;;5064575;28;20696;-93
2021/10/22 01:43:04;;;;;;;3.45;1.35;;;10.10;94.60;;;;;;5032541;28;20225;-92
2021/10/22 01:48:12;;;;;;;1.77;0.93;;;10.20;95.40;;;;;;5039199;28;20205;-92
2021/10/22 01:50:40;;;;;;;1.52;0.82;;;10.30;95.10;;;;;;5050124;28;20229;-93
2021/10/22 01:56:12;;;;;;;2.30;1.05;;;10.20;95.40;;;;;;5047392;28;20233;-93
2021/10/22 01:58:39;;;;;;;2.53;1.00;;;10.20;95.70;;;;;;5058858;28;20300;-94
2021/10/22 02:03:47;;;;;;;2.38;0.88;;;10.20;95.80;;;;;;5053004;28;20216;-93
2021/10/22 02:06:14;;;;;;;2.22;1.00;;;10.30;95.80;;;;;;5057964;28;20300;-94
2021/10/22 02:11:23;;;;;;;3.13;1.23;;;10.40;95.30;;;;;;5030395;28;20221;-93
2021/10/22 02:13:50;;;;;;;2.22;0.98;;;10.30;95.50;;;;;;5048855;28;20248;-93
2021/10/22 02:16:17;;;;;;;3.13;1.15;;;10.40;95.10;;;;;;5058443;28;20229;-94
2021/10/22 02:18:44;;;;;;;1.92;0.90;;;10.50;95.30;;;;;;5061229;28;20232;-94
2021/10/22 02:21:11;;;;;;;2.28;1.10;;;10.40;95.20;;;;;;5055007;28;20757;-94
2021/10/22 02:23:38;;;;;;;3.42;1.15;;;10.40;95.40;;;;;;5057709;28;20300;-94
2021/10/22 02:31:28;;;;;;;4.10;1.33;;;10.30;95.60;;;;;;5044946;28;20236;-94
2021/10/22 02:33:56;;;;;;;3.40;1.00;;;10.30;95.80;;;;;;5066416;28;20649;-94
2021/10/22 02:36:23;;;;;;;2.40;0.90;;;10.30;95.80;;;;;;5060896;28;20300;-93
2021/10/22 02:38:50;;;;;;;2.55;1.15;;;10.30;96.10;;;;;;5066457;28;20281;-94
2021/10/22 02:42:06;;;;;;;2.83;1.40;;;10.40;95.80;;;;;;5013256;28;20315;-93
2021/10/22 02:47:28;;;;;;;3.40;1.08;;;10.40;95.80;;;;;;5021413;28;20674;-93
2021/10/22 02:50:17;;;;;;;4.90;1.45;;;10.30;95.90;;;;;;5024945;28;20209;-94
2021/10/22 02:53:04;;;;;;;2.25;1.20;;;10.30;95.80;;;;;;5049239;28;20227;-93
2021/10/22 02:55:51;;;;;;;1.70;1.00;;;10.40;95.80;;;;;;5029238;28;20236;-93
2021/10/22 03:01:01;;;;;;;2.55;0.98;;;10.30;95.80;;;;;;5047458;28;20723;-94
2021/10/22 03:03:28;;;;;;;2.05;0.90;;;10.30;96.30;;;;;;5045730;28;20233;-93
2021/10/22 03:05:55;;;;;;;0.80;0.70;;;10.20;96.60;;;;;;5047679;28;20237;-93
2021/10/22 03:08:22;;;;;;;1.73;0.90;;;10.20;96.40;;;;;;5053346;28;20243;-93
2021/10/22 03:10:49;;;;;;;2.15;1.13;;;10.10;97.30;;;;;;5054246;28;20234;-93
2021/10/22 03:13:16;;;;;;;1.52;1.10;;;10.10;97.40;;;;;;5055268;28;20235;-93
2021/10/22 03:18:25;;;;;;;1.65;0.95;;;10.20;97.30;;;;;;5025894;28;20723;-93
2021/10/22 03:20:51;;;;;;;1.75;0.93;;;10.40;97.20;;;;;;5053644;28;20230;-94
2021/10/22 03:23:18;;;;;;;1.13;0.93;;;10.40;96.70;;;;;;5056846;28;20688;-93
2021/10/22 03:25:45;;;;;;;1.08;1.08;;;10.30;95.80;;;;;;5050823;28;20228;-93
2021/10/22 03:28:12;;;;;;;2.00;1.30;;;10.20;96.10;;;;;;5044888;28;20202;-94
2021/10/22 03:36:03;;;;;;;1.15;1.00;;;10.20;95.80;;;;;;5006982;28;20238;-93
2021/10/22 03:38:30;;;;;;;1.27;1.10;;;10.30;95.80;;;;;;5035114;28;20194;-93
2021/10/22 03:40:57;;;;;;;1.40;1.30;;;10.20;95.80;;;;;;5042831;28;20222;-93
2021/10/22 03:43:24;;;;;;;1.38;1.23;;;10.20;95.80;;;;;;5049205;28;20204;-93
2021/10/22 03:45:51;;;;;;;1.00;0.90;;;10.20;95.80;;;;;;5047314;28;20223;-93
2021/10/22 03:48:18;;;;;;;1.58;1.17;;;10.30;95.80;;;;;;5043783;28;20337;-93
2021/10/22 03:53:27;;;;;;;1.40;1.30;;;10.20;96.10;;;;;;5031254;28;20236;-93
2021/10/22 03:55:54;;;;;;;1.30;1.20;;;10.20;95.80;;;;;;5056553;28;20290;-93
2021/10/22 04:01:03;;;;;;;1.20;1.10;;;10.10;95.80;;;;;;5047445;28;20693;-93
2021/10/22 04:06:15;;;;;;;1.23;1.10;;;10.10;95.70;;;;;;5048929;28;20240;-93
2021/10/22 04:08:42;;;;;;;1.02;1.02;;;10.10;95.70;;;;;;5053247;28;20293;-93
2021/10/22 04:11:09;;;;;;;1.42;1.30;;;10.10;95.70;;;;;;5046867;28;20233;-93
2021/10/22 04:13:36;;;;;;;1.75;1.65;;;10.00;95.70;;;;;;5052934;28;20213;-93
2021/10/22 04:16:03;;;;;;;1.65;1.55;;;9.80;95.70;;;;;;5065946;28;20295;-93
2021/10/22 04:18:30;;;;;;;1.70;1.60;;;9.80;95.70;;;;;;5057661;28;20579;-93
2021/10/22 04:20:57;;;;;;;1.92;1.40;;;9.80;96.10;;;;;;5057529;28;20578;-92
2021/10/22 04:23:26;;;;;;;1.70;1.60;;;9.70;95.50;;;;;;5057165;28;20237;-94
2021/10/22 04:28:33;;;;;;;3.85;1.80;;;9.40;96.00;;;;;;5036143;28;20539;-93
2021/10/22 04:31:00;;;;;;;2.03;1.70;;;9.40;96.00;;;;;;5047558;28;20304;-93
2021/10/22 04:33:27;;;;;;;2.05;1.60;;;9.40;96.00;;;;;;5042270;28;20221;-93
2021/10/22 04:35:54;;;;;;;1.70;1.60;;;9.30;95.80;;;;;;5053784;28;20232;-93
2021/10/22 04:41:27;;;;;;;2.30;1.65;;;9.30;96.50;;;;;;5047264;28;20252;-93
2021/10/22 04:46:36;;;;;;;2.35;2.15;;;9.50;96.00;;;;;;5035256;28;20716;-93
2021/10/22 04:49:02;;;;;;;3.47;2.15;;;9.40;96.00;;;;;;5053315;28;20205;-93
2021/10/22 04:51:29;;;;;;;2.35;1.98;;;9.40;96.00;;;;;;5044221;28;20348;-93
2021/10/22 04:56:38;;;;;;;2.75;1.90;;;9.00;95.00;;;;;;5049170;28;20257;-92
2021/10/22 04:59:05;;;;;;;2.33;1.98;;;8.90;95.90;;;;;;5042704;28;20202;-92
2021/10/22 05:01:32;;;;;;;2.22;2.03;;;8.90;95.40;;;;;;5054932;28;20243;-92
2021/10/22 05:03:59;;;;;;;3.33;1.80;;;8.90;95.10;;;;;;5049319;28;20264;-91
2021/10/22 05:06:26;;;;;;;2.58;1.80;;;8.80;95.20;;;;;;5054389;28;20677;-90
2021/10/22 05:08:53;;;;;;;3.30;2.05;;;8.90;95.30;;;;;;5054671;28;20202;-91
2021/10/22 05:11:21;;;;;;;4.50;2.38;;;8.90;95.90;;;;;;5045599;28;20316;-92
2021/10/22 05:13:49;;;;;;;2.35;2.15;;;8.90;95.50;;;;;;5058146;28;20225;-92
2021/10/22 05:16:16;;;;;;;4.03;1.92;;;8.80;95.10;;;;;;5055174;28;20584;-93
2021/10/22 05:18:42;;;;;;;6.78;2.67;;;8.70;94.80;;;;;;5057410;28;20207;-93
2021/10/22 05:21:11;;;;;;;4.28;2.10;;;8.80;95.90;;;;;;5053691;28;20313;-93
2021/10/22 05:23:38;;;;;;;11.80;3.53;;;8.70;95.90;;;;;;5051423;28;20234;-93
2021/10/22 05:26:05;;;;;;;16.75;4.28;;;8.70;96.10;;;;;;5072523;28;20265;-94
2021/10/22 05:31:14;;;;;;;14.18;4.15;;;8.90;95.90;;;;;;5049893;28;20228;-93
2021/10/22 05:33:41;;;;;;;3.60;2.50;;;9.00;96.30;;;;;;5054734;28;20232;-92
2021/10/22 05:36:08;;;;;;;3.67;2.40;;;9.10;95.40;;;;;;5054597;28;20674;-93
2021/10/22 05:38:34;;;;;;;4.30;2.58;;;9.00;95.20;;;;;;5074391;28;20197;-93
2021/10/22 05:41:01;;;;;;;3.15;2.40;;;8.70;95.30;;;;;;5068132;28;20241;-93
2021/10/22 05:44:00;;;;;;;7.28;2.58;;;8.70;95.60;;;;;;5059312;28;20307;-93
2021/10/22 05:46:27;;;;;;;8.23;2.80;;;8.70;95.80;;;;;;5069239;28;20226;-93
2021/10/22 05:48:54;;;;;;;11.77;3.13;;;8.70;95.80;;;;;;5059999;28;20197;-93
2021/10/22 05:51:55;;;;;;;7.75;2.65;;;8.70;95.90;;;;;;5062206;28;20325;-93
2021/10/22 05:57:03;;;;;;;5.13;2.70;;;8.70;95.90;;;;;;5059486;28;20224;-92
2021/10/22 06:02:19;;;;;;;9.20;3.08;;;8.70;95.50;;;;;;5059293;28;20237;-92
2021/10/22 06:10:42;;;;;;;6.10;2.70;;;8.80;95.30;;;;;;4964015;28;20252;-92
2021/10/22 06:13:08;;;;;;;8.02;3.08;;;8.70;94.90;;;;;;5033893;28;20238;-92
2021/10/22 06:18:19;;;;;;;3.70;2.30;;;8.90;94.50;;;;;;5043468;28;20213;-92
2021/10/22 06:20:49;;;;;;;5.40;2.38;;;9.00;94.30;;;;;;5051087;28;20282;-92
2021/10/22 06:29:04;;;;;;;4.25;2.10;;;9.10;93.90;;;;;;5049744;28;20201;-92
2021/10/22 06:37:15;;;;;;;6.40;2.58;;;8.90;94.40;;;;;;5029761;28;20210;-93
2021/10/22 06:40:02;;;;;;;8.60;3.17;;;9.00;94.60;;;;;;5050032;28;20197;-93
2021/10/22 06:47:52;;;;;;;7.00;2.90;;;9.50;94.10;;;;;;5050312;28;20274;-92
2021/10/22 06:50:19;;;;;;;5.05;2.83;;;9.50;93.10;;;;;;5066946;28;20284;-91
2021/10/22 06:52:46;;;;;;;5.53;2.55;;;9.50;93.30;;;;;;5063322;28;20200;-93
2021/10/22 07:00:38;;;;;;;3.90;2.70;;;9.50;92.70;;;;;;5022874;28;20225;-92
2021/10/22 07:08:52;;;;;;;6.07;2.60;;;9.50;92.60;;;;;;5052784;28;20272;-92
2021/10/22 07:11:25;;;;;;;3.60;2.80;;;9.20;92.20;;;;;;5054324;28;20689;-92
2021/10/22 07:13:54;;;;;;;4.05;2.60;;;9.20;93.60;;;;;;5049618;28;20222;-91
2021/10/22 07:16:23;;;;;;;4.60;2.80;;;9.30;93.20;;;;;;5055119;28;20233;-91
2021/10/22 07:18:51;;;;;;;5.07;3.00;;;9.40;93.60;;;;;;5063109;28;20232;-93
2021/10/22 07:25:05;;;;;;;2.70;2.20;;;9.50;93.30;;;;;;5085163;28;20192;-91
2021/10/22 07:28:13;;;;;;;2.72;2.10;;;9.60;93.00;;;;;;5068792;28;20225;-93
2021/10/22 07:30:44;;;;;;;3.70;2.40;;;9.90;91.30;;;;;;5070060;28;20229;-92
2021/10/22 07:34:04;;;;;;;5.40;2.50;;;9.80;90.60;;;;;;5043622;28;20203;-94
2021/10/22 07:36:47;;;;;;;5.80;2.70;;;9.70;91.50;;;;;;5047257;28;20298;-93
2021/10/22 07:40:06;;;;;;;3.90;2.17;;;9.60;92.00;;;;;;5026624;28;20199;-90
2021/10/22 07:49:54;;;;;;;5.30;2.05;;;9.80;91.60;;;;;;5002732;28;20180;-86
2021/10/22 07:52:33;;;;;;;4.45;1.88;;;9.60;91.70;;;;;;5030010;28;20321;-88
2021/10/22 07:55:00;;;;;;;3.55;2.10;;;9.70;91.60;;;;;;5062864;28;20741;-88
2021/10/22 07:57:32;;;;;;;2.95;1.70;;;9.80;92.80;;;;;;5054698;28;20229;-89
2021/10/22 07:59:59;;;;;;;7.18;2.08;;;10.00;91.80;;;;;;5066608;28;20210;-89
2021/10/22 08:02:28;;;;;;;5.63;2.30;;;10.10;90.70;;;;;;5046134;28;20293;-91
2021/10/22 08:15:08;;;;;;;3.25;2.10;;;9.60;91.40;;;;;;6044095;22;20249;-90
2021/10/22 08:41:57;;;;;;;4.88;2.30;;;9.70;90.10;;;;;;5029886;28;20215;-92
2021/10/22 08:47:26;;;;;;;4.63;2.40;;;9.40;91.20;;;;;;4994332;28;20218;-92
2021/10/22 08:49:53;;;;;;;3.60;2.15;;;9.40;91.70;;;;;;5025858;28;20226;-87
2021/10/22 08:52:21;;;;;;;5.80;2.45;;;9.70;92.20;;;;;;5025620;28;20249;-90
2021/10/22 09:47:38;;;;;;;5.55;1.95;;;11.50;74.70;;;;;;5042371;28;20200;-91
2021/10/22 09:50:10;;;;;;;3.78;1.92;;;11.50;71.90;;;;;;5058547;28;20273;-91
2021/10/22 10:06:40;;;;;;;4.20;1.80;;;11.20;67.10;;;;;;5060321;28;20204;-92
2021/10/22 10:12:29;;;;;;;5.10;2.00;;;11.50;65.20;;;;;;5062422;28;20221;-90
2021/10/22 10:14:56;;;;;;;3.08;1.90;;;11.40;63.90;;;;;;5061735;28;20277;-89
2021/10/22 10:17:23;;;;;;;4.40;1.80;;;11.30;64.80;;;;;;5046261;28;20667;-88
2021/10/22 10:19:52;;;;;;;3.75;1.75;;;11.20;68.00;;;;;;5040944;28;20207;-90
2021/10/22 10:25:19;;;;;;;4.13;2.20;;;11.00;66.40;;;;;;5037458;28;20211;-91
2021/10/22 11:51:22;;;;;;;6.53;2.03;;;11.80;56.70;;;;;;5064559;28;20234;-93
2021/10/22 11:53:50;;;;;;;6.68;2.00;;;12.00;57.80;;;;;;5070008;28;20243;-93
2021/10/22 12:31:10;;;;;;;4.70;2.15;;;12.30;57.80;;;;;;5020782;28;20277;-92
2021/10/22 12:33:38;;;;;;;4.28;1.90;;;12.30;58.00;;;;;;5044640;28;20233;-92
2021/10/22 13:04:03;;;;;;;4.40;1.95;;;12.20;55.10;;;;;;5009361;28;20215;-92
2021/10/22 13:13:19;;;;;;;5.10;2.10;;;12.00;54.20;;;;;;5047594;28;20226;-92
2021/10/22 13:21:29;;;;;;;4.68;1.63;;;11.70;54.10;;;;;;4995139;28;20219;-92
2021/10/22 13:23:56;;;;;;;3.38;1.60;;;11.70;56.40;;;;;;4998997;28;20204;-92
2021/10/22 13:26:25;;;;;;;3.63;1.52;;;11.60;54.80;;;;;;5031206;28;20225;-91
2021/10/22 13:28:53;;;;;;;5.90;1.80;;;11.80;58.50;;;;;;5063337;28;20217;-92
2021/10/22 13:31:21;;;;;;;4.82;1.73;;;11.80;52.30;;;;;;5066367;28;20692;-92
2021/10/22 13:36:29;;;;;;;4.93;1.70;;;11.60;53.00;;;;;;5024331;28;20293;-93
2021/10/22 13:41:47;;;;;;;5.97;2.17;;;11.50;51.60;;;;;;5064861;28;20225;-91
2021/10/22 13:44:14;;;;;;;5.28;2.00;;;11.60;53.60;;;;;;5048881;28;20194;-92
2021/10/22 13:46:42;;;;;;;3.90;1.88;;;11.70;54.00;;;;;;5059675;28;20303;-92
2021/10/22 13:49:09;;;;;;;3.85;1.67;;;11.90;53.40;;;;;;5057109;28;20199;-92
2021/10/22 13:51:36;;;;;;;5.47;2.08;;;12.00;55.40;;;;;;5062336;28;20711;-92
2021/10/22 13:54:03;;;;;;;4.90;1.92;;;11.90;52.30;;;;;;5061652;28;20555;-92
2021/10/22 13:56:31;;;;;;;6.47;1.80;;;11.80;53.00;;;;;;5061710;28;20667;-93
2021/10/22 13:59:00;;;;;;;6.22;2.30;;;11.80;53.50;;;;;;5052954;28;20234;-92
2021/10/22 14:07:08;;;;;;;3.92;2.10;;;11.40;54.10;;;;;;5042129;28;20221;-93
2021/10/22 14:18:09;;;;;;;3.90;1.92;;;11.20;57.40;;;;;;5040117;28;20218;-92
2021/10/22 14:35:43;;;;;;;7.22;2.58;;;10.80;57.50;;;;;;5051547;28;20225;-90
2021/10/22 14:44:23;;;;;;;5.05;1.90;;;10.60;58.80;;;;;;5048030;28;20267;-92
2021/10/22 15:09:54;;;;;;;4.47;1.83;;;10.70;54.20;;;;;;5043808;28;20166;-92
2021/10/22 15:15:41;;;;;;;4.38;1.77;;;10.40;55.70;;;;;;5157186;23;20219;-92
2021/10/22 15:18:08;;;;;;;6.43;2.05;;;10.40;55.70;;;;;;5054135;28;20191;-93
2021/10/22 15:20:38;;;;;;;5.75;2.20;;;10.20;59.20;;;;;;4978356;28;20231;-92
2021/10/22 15:23:24;;;;;;;5.43;2.00;;;10.10;60.00;;;;;;5044414;28;20217;-94
2021/10/22 15:28:32;;;;;;;3.53;1.90;;;9.90;61.40;;;;;;5056795;28;20216;-94
2021/10/22 15:31:01;;;;;;;4.25;2.15;;;9.80;63.00;;;;;;5053992;28;20215;-92
2021/10/22 15:33:28;;;;;;;3.35;1.77;;;9.90;62.60;;;;;;5034618;28;20201;-92
2021/10/22 15:35:55;;;;;;;6.22;2.28;;;9.70;64.60;;;;;;5045154;28;20226;-92
2021/10/22 15:38:22;;;;;;;3.80;2.20;;;9.70;65.30;;;;;;5045158;28;20198;-92
2021/10/22 15:40:49;;;;;;;2.78;2.00;;;9.60;67.30;;;;;;5045434;28;20246;-92
2021/10/22 15:43:16;;;;;;;4.00;1.80;;;9.50;66.60;;;;;;5051237;28;20632;-93
2021/10/22 15:45:44;;;;;;;2.33;1.83;;;9.50;65.60;;;;;;5049523;28;20260;-92
2021/10/22 15:48:13;;;;;;;4.35;2.17;;;9.50;67.60;;;;;;5048408;28;20237;-92
2021/10/22 15:50:40;;;;;;;5.10;2.20;;;9.50;67.60;;;;;;5045823;28;20230;-93
2021/10/22 15:53:08;;;;;;;3.65;1.95;;;9.50;68.40;;;;;;5052455;28;20210;-93
2021/10/22 15:55:56;;;;;;;4.78;2.00;;;9.40;70.10;;;;;;5048914;28;20228;-92
2021/10/22 15:58:22;;;;;;;4.43;2.22;;;9.40;71.60;;;;;;5049875;28;20202;-92
2021/10/22 16:00:49;;;;;;;8.80;2.05;;;9.30;72.30;;;;;;5050188;28;20249;-93
2021/10/22 16:06:03;;;;;;;4.55;2.10;;;9.20;74.10;;;;;;5048684;28;20280;-93
2021/10/22 16:08:40;;;;;;;3.90;2.40;;;9.30;74.20;;;;;;5052148;28;20210;-92
2021/10/22 16:11:19;;;;;;;3.97;2.50;;;9.30;74.30;;;;;;5050867;28;20225;-91
2021/10/22 16:13:51;;;;;;;8.02;2.90;;;9.20;74.10;;;;;;5046059;28;20235;-91
2021/10/22 16:16:28;;;;;;;2.83;1.90;;;9.10;76.00;;;;;;5052752;28;20225;-92
2021/10/22 16:21:52;;;;;;;3.50;2.20;;;8.90;80.60;;;;;;5055682;28;20297;-90
2021/10/22 16:24:20;;;;;;;2.85;1.92;;;8.80;81.70;;;;;;5055057;28;20270;-92
2021/10/22 16:26:47;;;;;;;3.85;2.10;;;8.80;82.80;;;;;;5052873;28;20256;-91
2021/10/22 16:29:23;;;;;;;3.90;2.05;;;8.70;83.60;;;;;;5061413;28;20228;-92
2021/10/22 16:31:51;;;;;;;4.90;2.70;;;8.60;85.30;;;;;;5060907;28;20293;-92
2021/10/22 16:40:26;;;;;;;6.78;2.90;;;8.50;86.50;;;;;;5060065;28;20193;-91
2021/10/22 16:43:04;;;;;;;4.00;2.20;;;8.40;87.80;;;;;;5066924;28;20257;-91
2021/10/22 16:45:32;;;;;;;3.58;2.22;;;8.40;87.70;;;;;;5067455;28;20202;-91
2021/10/22 16:47:59;;;;;;;3.65;2.20;;;8.30;88.20;;;;;;5065144;28;20220;-91
2021/10/22 16:53:09;;;;;;;3.63;2.15;;;8.10;90.30;;;;;;5055567;28;20198;-89
2021/10/22 16:55:36;;;;;;;5.18;2.33;;;8.10;90.30;;;;;;5049452;28;20309;-90
2021/10/22 17:01:26;;;;;;;3.17;2.03;;;8.10;90.30;;;;;;5065506;28;20277;-90
2021/10/22 17:03:54;;;;;;;2.65;2.10;;;8.20;89.50;;;;;;5057606;28;20202;-91
2021/10/22 17:09:04;;;;;;;3.55;2.05;;;8.20;88.10;;;;;;5055753;28;20233;-90
2021/10/22 17:15:30;;;;;;;3.13;2.20;;;8.10;87.70;;;;;;5062209;28;20205;-91
2021/10/22 17:17:58;;;;;;;3.30;2.10;;;8.10;87.50;;;;;;5062560;28;20641;-91
2021/10/22 17:23:52;;;;;;;4.50;2.40;;;7.90;89.20;;;;;;5053019;28;20247;-91
2021/10/22 17:26:19;;;;;;;3.15;2.20;;;7.90;88.40;;;;;;5047130;28;20229;-90
2021/10/22 17:28:46;;;;;;;4.95;2.60;;;7.90;89.30;;;;;;5052419;28;20212;-92
2021/10/22 17:31:15;;;;;;;4.47;2.30;;;7.80;89.50;;;;;;5055906;28;20296;-91
2021/10/22 17:33:42;;;;;;;3.63;2.53;;;7.80;90.20;;;;;;5046217;28;20284;-91
2021/10/22 17:41:38;;;;;;;2.92;2.15;;;7.70;89.40;;;;;;4994907;28;20234;-93
2021/10/22 17:44:05;;;;;;;3.13;2.47;;;7.60;90.20;;;;;;5039111;28;20300;-93
2021/10/22 17:46:33;;;;;;;4.23;2.07;;;7.50;90.10;;;;;;5046052;28;20218;-92
2021/10/22 17:49:00;;;;;;;3.80;2.30;;;7.50;90.10;;;;;;5043650;28;20588;-92
2021/10/22 17:51:27;;;;;;;3.78;2.38;;;7.50;90.70;;;;;;5025369;28;20627;-93
2021/10/22 17:54:27;;;;;;;3.28;1.92;;;7.60;90.20;;;;;;5044281;28;20201;-91
2021/10/22 17:57:10;;;;;;;3.30;2.00;;;7.70;90.20;;;;;;5050856;28;20240;-91
2021/10/22 17:59:37;;;;;;;4.85;2.72;;;7.60;90.20;;;;;;5046851;28;20198;-92
2021/10/22 18:04:54;;;;;;;4.07;2.57;;;7.50;90.20;;;;;;5045507;28;20206;-92
2021/10/22 18:07:21;;;;;;;4.93;2.63;;;7.50;90.30;;;;;;5045913;28;20233;-93
2021/10/22 18:09:57;;;;;;;2.45;2.10;;;7.50;90.60;;;;;;5042686;28;20828;-93
2021/10/22 18:12:25;;;;;;;4.37;2.47;;;7.40;90.60;;;;;;5042579;28;20235;-92
2021/10/22 18:14:52;;;;;;;4.75;2.75;;;7.40;90.90;;;;;;5038591;28;20206;-89
2021/10/22 18:17:19;;;;;;;3.10;2.43;;;7.30;91.10;;;;;;5043846;28;20217;-89
2021/10/22 18:19:46;;;;;;;4.13;2.50;;;7.30;91.10;;;;;;5047918;28;20198;-88
2021/10/22 18:22:45;;;;;;;3.05;2.75;;;7.30;91.30;;;;;;5047006;28;20291;-90
2021/10/22 18:25:14;;;;;;;4.43;2.35;;;7.20;91.40;;;;;;5056298;28;20190;-89
2021/10/22 18:31:04;;;;;;;3.53;2.20;;;7.10;91.80;;;;;;5049839;28;20266;-92
2021/10/22 18:34:05;;;;;;;3.85;2.50;;;7.20;92.00;;;;;;5055235;28;20193;-91
2021/10/22 18:36:55;;;;;;;3.67;2.20;;;7.30;91.20;;;;;;5059946;28;20231;-91
2021/10/22 18:40:00;;;;;;;3.67;2.30;;;7.30;91.60;;;;;;5070819;28;20202;-90
2021/10/22 18:42:29;;;;;;;4.13;2.47;;;7.30;91.60;;;;;;5054054;28;20312;-90
2021/10/22 18:44:56;;;;;;;4.33;2.73;;;7.30;91.20;;;;;;5045662;28;20544;-91
2021/10/22 18:47:23;;;;;;;3.67;2.27;;;7.30;91.20;;;;;;5062869;28;20204;-91
2021/10/22 18:49:55;;;;;;;3.63;2.23;;;7.30;91.10;;;;;;5074086;28;20233;-91
2021/10/22 18:52:44;;;;;;;3.23;2.60;;;7.30;91.00;;;;;;5060858;28;20226;-90
2021/10/22 18:55:12;;;;;;;5.40;2.70;;;7.30;90.90;;;;;;5056757;28;20194;-91
2021/10/22 18:58:00;;;;;;;3.53;2.50;;;7.20;91.10;;;;;;5057839;28;20234;-91
2021/10/22 19:00:27;;;;;;;3.70;2.63;;;7.10;91.80;;;;;;5055685;28;20194;-89
2021/10/22 19:02:53;;;;;;;3.50;2.43;;;7.10;91.80;;;;;;5057441;28;20202;-91
2021/10/22 19:05:25;;;;;;;3.80;2.50;;;7.10;91.70;;;;;;5052886;28;20212;-91
2021/10/22 19:07:53;;;;;;;3.25;2.58;;;7.10;91.90;;;;;;5065665;28;20197;-89
2021/10/22 19:10:20;;;;;;;4.30;2.87;;;7.10;91.90;;;;;;5070503;28;20634;-91
2021/10/22 19:12:51;;;;;;;4.23;2.80;;;7.20;91.80;;;;;;5051140;28;20286;-91
2021/10/22 19:18:15;;;;;;;6.00;2.93;;;7.20;91.70;;;;;;5054216;28;20202;-89
2021/10/22 19:20:43;;;;;;;4.97;3.13;;;7.10;91.80;;;;;;5060458;28;20693;-92
2021/10/22 19:23:11;;;;;;;4.53;2.90;;;7.10;92.10;;;;;;5067590;28;20233;-92
2021/10/22 19:25:49;;;;;;;4.40;3.00;;;7.00;92.50;;;;;;5079754;28;20225;-93
2021/10/22 19:28:16;;;;;;;4.17;3.07;;;7.10;92.30;;;;;;5050817;28;20193;-91
2021/10/22 19:30:44;;;;;;;5.87;3.20;;;7.10;92.40;;;;;;5040665;28;20312;-90
2021/10/22 19:33:12;;;;;;;6.20;3.50;;;7.00;92.70;;;;;;5074361;28;20571;-92
2021/10/22 19:35:40;;;;;;;4.10;2.80;;;6.90;92.90;;;;;;5057030;28;20655;-91
2021/10/22 19:38:28;;;;;;;4.80;3.23;;;6.90;93.30;;;;;;5051905;28;20206;-90
2021/10/22 19:40:55;;;;;;;5.93;3.30;;;6.90;93.50;;;;;;5060706;28;20756;-89
2021/10/22 19:43:23;;;;;;;5.37;3.40;;;7.00;93.30;;;;;;5056074;28;20190;-90
2021/10/22 19:45:54;;;;;;;4.30;3.10;;;7.00;93.10;;;;;;5059422;28;20240;-91
2021/10/22 19:48:21;;;;;;;7.07;3.27;;;6.90;93.40;;;;;;5068983;28;20228;-92
2021/10/22 19:50:47;;;;;;;4.73;3.33;;;6.90;93.60;;;;;;5060487;28;20294;-91
2021/10/22 19:53:16;;;;;;;6.97;3.60;;;6.90;93.60;;;;;;5067539;28;20280;-90
2021/10/22 19:55:43;;;;;;;6.43;3.47;;;6.90;93.50;;;;;;5054177;28;20240;-91
2021/10/22 19:58:11;;;;;;;5.10;3.57;;;6.90;93.50;;;;;;5058914;28;20261;-90
2021/10/22 20:00:39;;;;;;;4.50;3.63;;;6.90;93.40;;;;;;5061767;28;20232;-93
2021/10/22 20:03:08;;;;;;;4.20;3.80;;;6.90;93.40;;;;;;5056019;28;20236;-90
2021/10/22 20:05:35;;;;;;;5.37;3.93;;;6.80;93.50;;;;;;5056306;28;20232;-90
2021/10/22 20:08:02;;;;;;;5.00;3.53;;;6.80;93.90;;;;;;5062242;28;20639;-92
2021/10/22 20:10:32;;;;;;;6.43;3.97;;;6.70;94.10;;;;;;5068058;28;20198;-92
2021/10/22 20:12:59;;;;;;;6.80;3.73;;;6.70;94.50;;;;;;5069556;28;20420;-92
2021/10/22 20:15:26;;;;;;;4.63;4.00;;;6.70;94.60;;;;;;5057943;28;20209;-89
2021/10/22 20:17:54;;;;;;;5.97;3.77;;;6.70;94.70;;;;;;5056544;28;20230;-90
2021/10/22 20:20:31;;;;;;;5.20;3.93;;;6.70;94.60;;;;;;5055502;28;20740;-90
2021/10/22 20:23:18;;;;;;;5.57;3.73;;;6.80;94.40;;;;;;5056945;28;20193;-91
2021/10/22 20:25:45;;;;;;;7.77;4.20;;;6.80;94.50;;;;;;5056728;28;20226;-92
2021/10/22 20:28:25;;;;;;;4.10;3.63;;;6.70;94.60;;;;;;5058295;28;20227;-89
2021/10/22 20:30:52;;;;;;;6.73;3.80;;;6.80;94.50;;;;;;5058684;28;20232;-89
2021/10/22 20:33:20;;;;;;;5.70;4.00;;;6.80;94.30;;;;;;5059422;28;20281;-89
2021/10/22 20:36:23;;;;;;;8.27;4.10;;;6.80;94.20;;;;;;5060932;28;20206;-89
2021/10/22 20:38:50;;;;;;;6.43;4.03;;;6.70;94.20;;;;;;5058976;28;20228;-89
2021/10/22 20:41:17;;;;;;;8.17;4.40;;;6.70;94.10;;;;;;5059173;28;20279;-89
2021/10/22 20:44:17;;;;;;;6.10;4.10;;;6.70;94.30;;;;;;5060416;28;20225;-89
2021/10/22 20:46:44;;;;;;;6.87;3.83;;;6.60;94.30;;;;;;5059446;28;20229;-91
2021/10/22 20:49:28;;;;;;;6.97;3.80;;;6.60;94.20;;;;;;5059319;28;20204;-93
2021/10/22 20:57:27;;;;;;;7.50;4.00;;;6.70;93.60;;;;;;5064484;28;20282;-92
2021/10/22 21:00:04;;;;;;;8.60;3.93;;;6.70;93.60;;;;;;5053379;28;20197;-92
2021/10/22 21:02:32;;;;;;;7.67;3.93;;;6.70;93.20;;;;;;5050267;28;20235;-93
2021/10/22 21:04:59;;;;;;;5.67;3.50;;;6.70;93.10;;;;;;5053737;28;20269;-92
2021/10/22 21:07:28;;;;;;;5.47;3.60;;;6.70;92.90;;;;;;5060016;28;20222;-91
2021/10/22 21:09:55;;;;;;;6.33;4.10;;;6.70;92.70;;;;;;5064628;28;20201;-92
2021/10/22 21:12:26;;;;;;;4.90;3.60;;;6.70;92.80;;;;;;5039603;28;20241;-89
2021/10/22 21:14:53;;;;;;;5.70;3.63;;;6.70;92.70;;;;;;5065519;28;20209;-91
2021/10/22 21:17:21;;;;;;;6.30;3.40;;;6.70;92.70;;;;;;5044064;28;20340;-90
2021/10/22 21:19:47;;;;;;;5.30;3.70;;;6.70;92.50;;;;;;5075794;28;20265;-90
2021/10/22 21:22:14;;;;;;;5.83;3.73;;;6.60;92.50;;;;;;5069925;28;20656;-93
2021/10/22 21:24:53;;;;;;;7.20;3.57;;;6.50;92.60;;;;;;5058888;28;20270;-90
2021/10/22 21:27:21;;;;;;;5.70;3.77;;;6.50;92.90;;;;;;5044197;28;20226;-90
2021/10/22 21:29:58;;;;;;;4.60;3.50;;;6.40;93.20;;;;;;5065805;28;20228;-92
2021/10/22 21:32:25;;;;;;;7.87;3.80;;;6.30;93.20;;;;;;5057647;28;20308;-91
2021/10/22 21:34:52;;;;;;;5.33;3.70;;;6.30;93.50;;;;;;5054030;28;20199;-91
2021/10/22 21:37:19;;;;;;;7.00;4.00;;;6.30;93.70;;;;;;5061604;28;20229;-91
2021/10/22 21:39:46;;;;;;;6.63;4.23;;;6.20;93.60;;;;;;5063757;28;20202;-89
2021/10/22 21:42:16;;;;;;;9.20;4.50;;;6.20;93.80;;;;;;5062212;28;20283;-93
2021/10/22 21:44:48;;;;;;;7.47;4.17;;;6.20;93.90;;;;;;5030522;28;20205;-91
2021/10/22 21:47:15;;;;;;;6.67;4.20;;;6.10;94.10;;;;;;5077857;28;20235;-90
2021/10/22 21:49:42;;;;;;;5.97;4.30;;;6.20;94.20;;;;;;5066946;28;20219;-90
2021/10/22 21:52:09;;;;;;;8.27;4.07;;;6.10;94.40;;;;;;5067144;28;20248;-91
2021/10/22 21:54:36;;;;;;;4.57;3.70;;;6.10;94.30;;;;;;5064792;28;20190;-91
2021/10/22 21:57:03;;;;;;;6.10;4.83;;;6.10;94.70;;;;;;5058150;28;20266;-93
2021/10/22 21:59:32;;;;;;;6.57;4.20;;;6.00;94.80;;;;;;5059747;28;20261;-93
2021/10/22 22:02:00;;;;;;;8.77;4.23;;;6.10;94.60;;;;;;5084155;28;20260;-90
2021/10/22 22:04:27;;;;;;;5.07;3.67;;;6.00;94.80;;;;;;5068169;28;20209;-90
2021/10/22 22:06:54;;;;;;;4.47;4.00;;;5.90;94.90;;;;;;5077099;28;20236;-90
2021/10/22 22:09:21;;;;;;;5.67;4.37;;;6.00;94.70;;;;;;5061768;28;20280;-90
